sensor_id;sensor_type;location;lat;lon;timestamp;pressure;altitude;pressure_sealevel;temperature;humidity
62124;BME280;48110;47.532;19.078;2023-06-22T00:00:47;100558.09;;;21.05;100.00
62124;BME280;48110;47.532;19.078;2023-06-22T00:03:56;100557.25;;;20.93;100.00
62124;BME280;48110;47.532;19.078;2023-06-22T00:07:02;100559.25;;;20.86;100.00
62124;BME280;48110;47.532;19.078;2023-06-22T00:10:11;100566.00;;;20.76;100.00
62124;BME280;48110;47.532;19.078;2023-06-22T00:13:18;100569.00;;;20.68;100.00
62124;BME280;48110;47.532;19.078;2023-06-22T00:16:24;100573.44;;;20.63;100.00
62124;BME280;48110;47.532;19.078;2023-06-22T00:19:31;100576.75;;;20.65;100.00
62124;BME280;48110;47.532;19.078;2023-06-22T00:22:41;100577.09;;;20.68;100.00
62124;BME280;48110;47.532;19.078;2023-06-22T00:25:50;100582.19;;;20.76;100.00
62124;BME280;48110;47.532;19.078;2023-06-22T00:28:57;100577.38;;;20.78;100.00
62124;BME280;48110;47.532;19.078;2023-06-22T00:32:06;100578.53;;;20.71;100.00
62124;BME280;48110;47.532;19.078;2023-06-22T00:35:14;100573.72;;;20.73;100.00
62124;BME280;48110;47.532;19.078;2023-06-22T00:38:21;100572.19;;;20.65;100.00
62124;BME280;48110;47.532;19.078;2023-06-22T00:41:32;100556.50;;;20.74;100.00
62124;BME280;48110;47.532;19.078;2023-06-22T00:44:40;100559.59;;;20.59;100.00
62124;BME280;48110;47.532;19.078;2023-06-22T00:47:52;100569.06;;;20.50;100.00
62124;BME280;48110;47.532;19.078;2023-06-22T00:50:57;100569.75;;;20.46;100.00
62124;BME280;48110;47.532;19.078;2023-06-22T00:54:08;100580.75;;;20.44;100.00
62124;BME280;48110;47.532;19.078;2023-06-22T00:57:15;100560.47;;;20.42;100.00
62124;BME280;48110;47.532;19.078;2023-06-22T01:00:26;100558.06;;;20.52;100.00
62124;BME280;48110;47.532;19.078;2023-06-22T01:03:34;100553.81;;;20.44;100.00
62124;BME280;48110;47.532;19.078;2023-06-22T01:06:51;100559.88;;;20.39;100.00
62124;BME280;48110;47.532;19.078;2023-06-22T01:10:08;100568.66;;;20.35;100.00
62124;BME280;48110;47.532;19.078;2023-06-22T01:13:40;100560.69;;;20.40;100.00
62124;BME280;48110;47.532;19.078;2023-06-22T01:16:51;100563.91;;;20.49;100.00
62124;BME280;48110;47.532;19.078;2023-06-22T01:20:00;100566.72;;;20.54;100.00
62124;BME280;48110;47.532;19.078;2023-06-22T01:30:01;100566.44;;;20.62;100.00
62124;BME280;48110;47.532;19.078;2023-06-22T01:33:11;100571.12;;;20.66;100.00
62124;BME280;48110;47.532;19.078;2023-06-22T01:36:22;100579.91;;;20.62;100.00
62124;BME280;48110;47.532;19.078;2023-06-22T01:39:31;100578.84;;;20.63;100.00
62124;BME280;48110;47.532;19.078;2023-06-22T01:42:41;100566.44;;;20.62;100.00
62124;BME280;48110;47.532;19.078;2023-06-22T01:45:51;100564.09;;;20.65;100.00
62124;BME280;48110;47.532;19.078;2023-06-22T01:48:59;100557.28;;;20.63;100.00
62124;BME280;48110;47.532;19.078;2023-06-22T01:52:08;100570.75;;;20.63;100.00
62124;BME280;48110;47.532;19.078;2023-06-22T01:55:17;100575.22;;;20.57;100.00
62124;BME280;48110;47.532;19.078;2023-06-22T01:58:27;100576.47;;;20.55;100.00
62124;BME280;48110;47.532;19.078;2023-06-22T02:01:47;100568.38;;;20.55;100.00
62124;BME280;48110;47.532;19.078;2023-06-22T02:05:07;100574.00;;;20.53;100.00
62124;BME280;48110;47.532;19.078;2023-06-22T02:08:21;100574.00;;;20.53;100.00
62124;BME280;48110;47.532;19.078;2023-06-22T02:11:31;100576.09;;;20.51;100.00
62124;BME280;48110;47.532;19.078;2023-06-22T02:14:39;100584.78;;;20.53;100.00
62124;BME280;48110;47.532;19.078;2023-06-22T02:17:48;100585.75;;;20.59;100.00
62124;BME280;48110;47.532;19.078;2023-06-22T02:20:54;100585.53;;;20.60;100.00
62124;BME280;48110;47.532;19.078;2023-06-22T02:24:00;100592.41;;;20.56;100.00
62124;BME280;48110;47.532;19.078;2023-06-22T02:27:10;100597.66;;;20.51;100.00
62124;BME280;48110;47.532;19.078;2023-06-22T02:30:17;100595.06;;;20.45;100.00
62124;BME280;48110;47.532;19.078;2023-06-22T02:33:24;100588.97;;;20.49;100.00
62124;BME280;48110;47.532;19.078;2023-06-22T02:36:31;100585.03;;;20.52;100.00
62124;BME280;48110;47.532;19.078;2023-06-22T02:39:42;100590.31;;;20.58;100.00
62124;BME280;48110;47.532;19.078;2023-06-22T02:42:48;100602.81;;;20.53;100.00
62124;BME280;48110;47.532;19.078;2023-06-22T02:45:55;100606.44;;;20.47;100.00
62124;BME280;48110;47.532;19.078;2023-06-22T02:49:02;100606.19;;;20.30;100.00
62124;BME280;48110;47.532;19.078;2023-06-22T02:52:10;100612.03;;;20.27;100.00
62124;BME280;48110;47.532;19.078;2023-06-22T02:55:19;100604.62;;;20.22;100.00
62124;BME280;48110;47.532;19.078;2023-06-22T02:58:27;100611.97;;;20.15;100.00
62124;BME280;48110;47.532;19.078;2023-06-22T03:01:36;100608.12;;;20.05;100.00
62124;BME280;48110;47.532;19.078;2023-06-22T03:04:52;100616.50;;;19.96;100.00
62124;BME280;48110;47.532;19.078;2023-06-22T03:07:59;100606.19;;;19.93;100.00
62124;BME280;48110;47.532;19.078;2023-06-22T03:11:06;100606.34;;;19.99;100.00
62124;BME280;48110;47.532;19.078;2023-06-22T03:14:13;100604.59;;;19.86;100.00
62124;BME280;48110;47.532;19.078;2023-06-22T03:17:21;100606.03;;;19.88;100.00
62124;BME280;48110;47.532;19.078;2023-06-22T03:20:31;100609.56;;;19.89;100.00
62124;BME280;48110;47.532;19.078;2023-06-22T03:23:41;100601.84;;;19.92;100.00
62124;BME280;48110;47.532;19.078;2023-06-22T03:26:48;100604.34;;;19.94;100.00
62124;BME280;48110;47.532;19.078;2023-06-22T03:29:56;100613.37;;;20.00;100.00
62124;BME280;48110;47.532;19.078;2023-06-22T03:33:04;100610.47;;;20.01;100.00
62124;BME280;48110;47.532;19.078;2023-06-22T03:36:11;100603.34;;;20.07;100.00
62124;BME280;48110;47.532;19.078;2023-06-22T03:39:21;100598.66;;;20.02;100.00
62124;BME280;48110;47.532;19.078;2023-06-22T03:42:27;100596.56;;;20.04;100.00
62124;BME280;48110;47.532;19.078;2023-06-22T03:45:34;100600.44;;;20.08;100.00
62124;BME280;48110;47.532;19.078;2023-06-22T03:48:43;100602.06;;;20.09;100.00
62124;BME280;48110;47.532;19.078;2023-06-22T03:51:49;100608.06;;;20.11;100.00
62124;BME280;48110;47.532;19.078;2023-06-22T03:54:57;100614.28;;;20.12;100.00
62124;BME280;48110;47.532;19.078;2023-06-22T03:58:05;100616.25;;;20.23;100.00
62124;BME280;48110;47.532;19.078;2023-06-22T04:01:10;100615.31;;;20.29;100.00
62124;BME280;48110;47.532;19.078;2023-06-22T04:04:18;100616.72;;;20.38;100.00
62124;BME280;48110;47.532;19.078;2023-06-22T04:07:23;100615.25;;;20.54;100.00
62124;BME280;48110;47.532;19.078;2023-06-22T04:10:31;100624.91;;;20.61;100.00
62124;BME280;48110;47.532;19.078;2023-06-22T04:13:40;100630.81;;;20.70;100.00
62124;BME280;48110;47.532;19.078;2023-06-22T04:16:47;100624.44;;;20.64;100.00
62124;BME280;48110;47.532;19.078;2023-06-22T04:19:54;100625.34;;;20.76;100.00
62124;BME280;48110;47.532;19.078;2023-06-22T04:23:01;100620.31;;;20.80;100.00
62124;BME280;48110;47.532;19.078;2023-06-22T04:26:08;100628.66;;;20.90;100.00
62124;BME280;48110;47.532;19.078;2023-06-22T04:29:17;100624.13;;;21.02;100.00
62124;BME280;48110;47.532;19.078;2023-06-22T04:32:22;100636.69;;;21.08;100.00
62124;BME280;48110;47.532;19.078;2023-06-22T04:35:30;100634.41;;;20.94;100.00
62124;BME280;48110;47.532;19.078;2023-06-22T04:38:37;100645.31;;;21.17;100.00
62124;BME280;48110;47.532;19.078;2023-06-22T04:41:42;100638.53;;;21.26;100.00
62124;BME280;48110;47.532;19.078;2023-06-22T04:44:48;100636.63;;;21.15;100.00
62124;BME280;48110;47.532;19.078;2023-06-22T04:47:56;100644.72;;;21.15;100.00
62124;BME280;48110;47.532;19.078;2023-06-22T04:51:02;100641.09;;;21.21;100.00
62124;BME280;48110;47.532;19.078;2023-06-22T04:54:09;100639.69;;;21.18;100.00
62124;BME280;48110;47.532;19.078;2023-06-22T04:57:14;100642.66;;;21.29;100.00
62124;BME280;48110;47.532;19.078;2023-06-22T05:00:20;100642.81;;;21.57;100.00
62124;BME280;48110;47.532;19.078;2023-06-22T05:03:28;100643.28;;;21.65;100.00
62124;BME280;48110;47.532;19.078;2023-06-22T05:06:37;100648.22;;;21.80;100.00
62124;BME280;48110;47.532;19.078;2023-06-22T05:09:45;100642.81;;;22.03;100.00
62124;BME280;48110;47.532;19.078;2023-06-22T05:12:52;100646.69;;;22.19;100.00
62124;BME280;48110;47.532;19.078;2023-06-22T05:16:01;100644.63;;;22.49;100.00
62124;BME280;48110;47.532;19.078;2023-06-22T05:19:08;100650.81;;;22.62;100.00
62124;BME280;48110;47.532;19.078;2023-06-22T05:22:15;100654.28;;;22.85;100.00
62124;BME280;48110;47.532;19.078;2023-06-22T05:25:23;100659.81;;;22.90;100.00
62124;BME280;48110;47.532;19.078;2023-06-22T05:28:28;100661.34;;;22.86;100.00
62124;BME280;48110;47.532;19.078;2023-06-22T05:31:35;100665.66;;;22.99;100.00
62124;BME280;48110;47.532;19.078;2023-06-22T05:34:39;100670.03;;;23.17;100.00
62124;BME280;48110;47.532;19.078;2023-06-22T05:37:44;100674.19;;;23.36;100.00
62124;BME280;48110;47.532;19.078;2023-06-22T05:40:48;100675.56;;;23.38;100.00
62124;BME280;48110;47.532;19.078;2023-06-22T05:43:52;100684.59;;;23.44;100.00
62124;BME280;48110;47.532;19.078;2023-06-22T05:46:56;100689.09;;;23.38;100.00
62124;BME280;48110;47.532;19.078;2023-06-22T05:50:00;100692.62;;;23.39;100.00
62124;BME280;48110;47.532;19.078;2023-06-22T05:53:03;100690.75;;;23.39;100.00
62124;BME280;48110;47.532;19.078;2023-06-22T05:56:08;100693.44;;;23.51;100.00
62124;BME280;48110;47.532;19.078;2023-06-22T05:59:11;100694.75;;;23.65;100.00
62124;BME280;48110;47.532;19.078;2023-06-22T06:02:18;100695.81;;;23.64;100.00
62124;BME280;48110;47.532;19.078;2023-06-22T06:05:24;100700.06;;;23.77;100.00
62124;BME280;48110;47.532;19.078;2023-06-22T06:08:30;100691.94;;;23.94;100.00
62124;BME280;48110;47.532;19.078;2023-06-22T06:11:34;100689.47;;;24.09;100.00
62124;BME280;48110;47.532;19.078;2023-06-22T06:14:42;100690.34;;;24.14;100.00
62124;BME280;48110;47.532;19.078;2023-06-22T06:17:51;100693.31;;;24.13;100.00
62124;BME280;48110;47.532;19.078;2023-06-22T06:20:57;100688.75;;;24.35;100.00
62124;BME280;48110;47.532;19.078;2023-06-22T06:24:02;100696.34;;;24.55;100.00
62124;BME280;48110;47.532;19.078;2023-06-22T06:27:05;100692.94;;;24.64;100.00
62124;BME280;48110;47.532;19.078;2023-06-22T06:30:10;100687.28;;;24.88;100.00
62124;BME280;48110;47.532;19.078;2023-06-22T06:33:14;100685.88;;;24.85;100.00
62124;BME280;48110;47.532;19.078;2023-06-22T06:36:18;100684.94;;;24.96;100.00
62124;BME280;48110;47.532;19.078;2023-06-22T06:39:22;100684.87;;;25.18;100.00
62124;BME280;48110;47.532;19.078;2023-06-22T06:42:26;100696.97;;;25.32;100.00
62124;BME280;48110;47.532;19.078;2023-06-22T06:45:31;100683.09;;;25.56;100.00
62124;BME280;48110;47.532;19.078;2023-06-22T06:48:37;100684.94;;;25.82;100.00
62124;BME280;48110;47.532;19.078;2023-06-22T06:51:39;100684.28;;;26.07;100.00
62124;BME280;48110;47.532;19.078;2023-06-22T06:54:42;100688.69;;;26.13;90.27
62124;BME280;48110;47.532;19.078;2023-06-22T06:57:46;100688.69;;;26.13;91.12
62124;BME280;48110;47.532;19.078;2023-06-22T07:00:51;100686.25;;;26.16;88.52
62124;BME280;48110;47.532;19.078;2023-06-22T07:03:54;100681.22;;;26.35;96.09
62124;BME280;48110;47.532;19.078;2023-06-22T07:07:01;100679.50;;;26.24;100.00
62124;BME280;48110;47.532;19.078;2023-06-22T07:10:08;100677.09;;;26.27;92.64
62124;BME280;48110;47.532;19.078;2023-06-22T07:13:11;100674.03;;;26.71;83.41
62124;BME280;48110;47.532;19.078;2023-06-22T07:16:13;100680.41;;;27.02;80.82
62124;BME280;48110;47.532;19.078;2023-06-22T07:19:24;100675.81;;;27.28;79.39
62124;BME280;48110;47.532;19.078;2023-06-22T07:22:29;100675.31;;;27.51;80.21
62124;BME280;48110;47.532;19.078;2023-06-22T07:25:35;100686.47;;;27.44;79.17
62124;BME280;48110;47.532;19.078;2023-06-22T07:28:39;100672.56;;;27.41;74.26
62124;BME280;48110;47.532;19.078;2023-06-22T07:31:46;100678.03;;;27.91;77.68
62124;BME280;48110;47.532;19.078;2023-06-22T07:34:50;100674.75;;;27.79;70.23
62124;BME280;48110;47.532;19.078;2023-06-22T07:37:54;100675.59;;;27.49;68.78
62124;BME280;48110;47.532;19.078;2023-06-22T07:40:57;100682.91;;;28.15;70.33
62124;BME280;48110;47.532;19.078;2023-06-22T07:44:02;100679.34;;;28.93;63.65
62124;BME280;48110;47.532;19.078;2023-06-22T07:47:06;100674.78;;;29.96;60.46
62124;BME280;48110;47.532;19.078;2023-06-22T07:50:12;100676.03;;;30.56;59.64
62124;BME280;48110;47.532;19.078;2023-06-22T07:53:17;100674.13;;;30.75;56.51
62124;BME280;48110;47.532;19.078;2023-06-22T07:56:21;100675.47;;;30.59;54.26
62124;BME280;48110;47.532;19.078;2023-06-22T07:59:25;100666.56;;;31.42;50.07
62124;BME280;48110;47.532;19.078;2023-06-22T08:02:30;100665.34;;;30.78;52.32
62124;BME280;48110;47.532;19.078;2023-06-22T08:05:34;100666.63;;;31.88;52.97
62124;BME280;48110;47.532;19.078;2023-06-22T08:08:38;100665.59;;;33.21;48.81
62124;BME280;48110;47.532;19.078;2023-06-22T08:11:41;100668.75;;;33.36;46.61
62124;BME280;48110;47.532;19.078;2023-06-22T08:14:44;100660.75;;;33.48;45.04
62124;BME280;48110;47.532;19.078;2023-06-22T08:17:50;100651.06;;;31.19;49.37
62124;BME280;48110;47.532;19.078;2023-06-22T08:20:55;100647.50;;;31.18;51.91
62124;BME280;48110;47.532;19.078;2023-06-22T08:23:59;100652.53;;;32.49;47.37
62124;BME280;48110;47.532;19.078;2023-06-22T08:27:02;100649.31;;;32.47;47.83
62124;BME280;48110;47.532;19.078;2023-06-22T08:30:07;100652.38;;;34.15;45.28
62124;BME280;48110;47.532;19.078;2023-06-22T08:33:11;100651.00;;;33.95;44.00
62124;BME280;48110;47.532;19.078;2023-06-22T08:36:29;100649.16;;;34.61;42.43
62124;BME280;48110;47.532;19.078;2023-06-22T08:39:35;100643.84;;;35.42;38.40
62124;BME280;48110;47.532;19.078;2023-06-22T08:42:41;100645.31;;;35.14;39.69
62124;BME280;48110;47.532;19.078;2023-06-22T08:45:45;100646.66;;;36.85;38.27
62124;BME280;48110;47.532;19.078;2023-06-22T08:48:49;100642.50;;;37.54;36.57
62124;BME280;48110;47.532;19.078;2023-06-22T08:51:55;100641.41;;;36.04;37.72
62124;BME280;48110;47.532;19.078;2023-06-22T08:55:01;100633.00;;;36.89;38.64
62124;BME280;48110;47.532;19.078;2023-06-22T08:58:06;100629.53;;;36.21;38.43
62124;BME280;48110;47.532;19.078;2023-06-22T09:01:10;100621.56;;;36.90;39.50
62124;BME280;48110;47.532;19.078;2023-06-22T09:04:14;100613.44;;;35.59;38.79
62124;BME280;48110;47.532;19.078;2023-06-22T09:07:18;100617.34;;;36.72;38.10
62124;BME280;48110;47.532;19.078;2023-06-22T09:10:26;100615.31;;;35.93;39.90
62124;BME280;48110;47.532;19.078;2023-06-22T09:13:30;100617.88;;;37.40;37.66
62124;BME280;48110;47.532;19.078;2023-06-22T09:16:35;100627.72;;;37.17;36.18
62124;BME280;48110;47.532;19.078;2023-06-22T09:19:40;100611.25;;;37.53;35.75
62124;BME280;48110;47.532;19.078;2023-06-22T09:22:45;100613.47;;;37.72;38.00
62124;BME280;48110;47.532;19.078;2023-06-22T09:25:50;100606.13;;;38.37;36.82
62124;BME280;48110;47.532;19.078;2023-06-22T09:28:53;100597.31;;;38.71;35.94
62124;BME280;48110;47.532;19.078;2023-06-22T09:32:00;100593.72;;;37.16;38.84
62124;BME280;48110;47.532;19.078;2023-06-22T09:35:05;100600.78;;;37.26;38.28
62124;BME280;48110;47.532;19.078;2023-06-22T09:38:10;100599.41;;;36.78;38.45
62124;BME280;48110;47.532;19.078;2023-06-22T09:41:13;100595.28;;;36.05;39.43
62124;BME280;48110;47.532;19.078;2023-06-22T09:44:17;100593.06;;;37.64;37.03
62124;BME280;48110;47.532;19.078;2023-06-22T09:47:20;100595.09;;;38.00;35.24
62124;BME280;48110;47.532;19.078;2023-06-22T09:50:23;100599.00;;;38.23;34.11
62124;BME280;48110;47.532;19.078;2023-06-22T09:53:27;100591.34;;;38.45;34.43
62124;BME280;48110;47.532;19.078;2023-06-22T09:56:33;100587.53;;;39.17;34.75
62124;BME280;48110;47.532;19.078;2023-06-22T09:59:39;100591.62;;;39.07;35.94
62124;BME280;48110;47.532;19.078;2023-06-22T10:02:43;100588.78;;;37.91;35.17
62124;BME280;48110;47.532;19.078;2023-06-22T10:05:48;100592.56;;;38.72;35.59
62124;BME280;48110;47.532;19.078;2023-06-22T10:08:52;100585.69;;;38.53;34.84
62124;BME280;48110;47.532;19.078;2023-06-22T10:11:57;100582.19;;;39.83;33.80
62124;BME280;48110;47.532;19.078;2023-06-22T10:15:01;100585.31;;;39.82;32.85
62124;BME280;48110;47.532;19.078;2023-06-22T10:18:05;100591.84;;;39.74;34.46
62124;BME280;48110;47.532;19.078;2023-06-22T10:21:10;100589.25;;;40.28;31.90
62124;BME280;48110;47.532;19.078;2023-06-22T10:24:15;100587.72;;;40.85;31.16
62124;BME280;48110;47.532;19.078;2023-06-22T10:27:20;100584.56;;;41.25;32.52
62124;BME280;48110;47.532;19.078;2023-06-22T10:30:25;100582.56;;;40.87;30.43
62124;BME280;48110;47.532;19.078;2023-06-22T10:33:27;100573.41;;;40.67;31.77
62124;BME280;48110;47.532;19.078;2023-06-22T10:36:31;100576.16;;;41.44;31.35
62124;BME280;48110;47.532;19.078;2023-06-22T10:39:36;100574.12;;;42.13;30.69
62124;BME280;48110;47.532;19.078;2023-06-22T10:42:42;100572.19;;;42.69;30.08
62124;BME280;48110;47.532;19.078;2023-06-22T10:45:46;100569.56;;;41.33;30.64
62124;BME280;48110;47.532;19.078;2023-06-22T10:48:50;100565.16;;;41.09;31.31
62124;BME280;48110;47.532;19.078;2023-06-22T10:51:53;100562.69;;;40.65;30.81
62124;BME280;48110;47.532;19.078;2023-06-22T10:54:57;100556.88;;;40.20;31.63
62124;BME280;48110;47.532;19.078;2023-06-22T10:58:00;100552.81;;;41.75;29.54
62124;BME280;48110;47.532;19.078;2023-06-22T11:01:04;100553.62;;;40.18;32.59
62124;BME280;48110;47.532;19.078;2023-06-22T11:04:07;100553.81;;;41.63;30.60
62124;BME280;48110;47.532;19.078;2023-06-22T11:07:10;100559.44;;;42.72;29.31
62124;BME280;48110;47.532;19.078;2023-06-22T11:10:13;100555.56;;;43.13;28.45
62124;BME280;48110;47.532;19.078;2023-06-22T11:13:18;100559.72;;;42.97;29.03
62124;BME280;48110;47.532;19.078;2023-06-22T11:16:20;100547.62;;;43.19;28.86
62124;BME280;48110;47.532;19.078;2023-06-22T11:19:23;100550.66;;;44.60;26.47
62124;BME280;48110;47.532;19.078;2023-06-22T11:22:28;100547.16;;;44.74;27.20
62124;BME280;48110;47.532;19.078;2023-06-22T11:25:33;100539.81;;;42.65;30.82
62124;BME280;48110;47.532;19.078;2023-06-22T11:28:41;100541.84;;;41.40;30.97
62124;BME280;48110;47.532;19.078;2023-06-22T11:31:45;100532.44;;;42.23;29.36
62124;BME280;48110;47.532;19.078;2023-06-22T11:34:51;100534.19;;;42.05;30.17
62124;BME280;48110;47.532;19.078;2023-06-22T11:37:54;100531.47;;;39.55;33.19
62124;BME280;48110;47.532;19.078;2023-06-22T11:41:00;100527.94;;;38.31;35.10
62124;BME280;48110;47.532;19.078;2023-06-22T11:44:04;100523.03;;;37.64;36.30
62124;BME280;48110;47.532;19.078;2023-06-22T11:47:08;100517.66;;;37.34;35.47
62124;BME280;48110;47.532;19.078;2023-06-22T11:50:12;100516.94;;;39.30;34.03
62124;BME280;48110;47.532;19.078;2023-06-22T11:53:15;100515.88;;;41.09;31.09
62124;BME280;48110;47.532;19.078;2023-06-22T11:56:22;100519.47;;;44.51;27.34
62124;BME280;48110;47.532;19.078;2023-06-22T11:59:26;100510.75;;;44.67;26.19
62124;BME280;48110;47.532;19.078;2023-06-22T12:02:31;100512.41;;;44.06;26.85
62124;BME280;48110;47.532;19.078;2023-06-22T12:05:34;100511.28;;;43.56;27.09
62124;BME280;48110;47.532;19.078;2023-06-22T12:08:39;100510.44;;;40.20;31.16
62124;BME280;48110;47.532;19.078;2023-06-22T12:11:43;100514.38;;;42.70;27.20
62124;BME280;48110;47.532;19.078;2023-06-22T12:14:46;100512.09;;;45.47;24.72
62124;BME280;48110;47.532;19.078;2023-06-22T12:17:50;100507.28;;;47.46;23.67
62124;BME280;48110;47.532;19.078;2023-06-22T12:20:53;100496.81;;;41.57;28.21
62124;BME280;48110;47.532;19.078;2023-06-22T12:23:57;100483.72;;;42.73;28.48
62124;BME280;48110;47.532;19.078;2023-06-22T12:27:02;100484.50;;;44.16;27.41
62124;BME280;48110;47.532;19.078;2023-06-22T12:30:08;100475.25;;;43.03;27.53
62124;BME280;48110;47.532;19.078;2023-06-22T12:33:12;100476.16;;;44.20;27.49
62124;BME280;48110;47.532;19.078;2023-06-22T12:36:15;100483.25;;;45.68;24.92
62124;BME280;48110;47.532;19.078;2023-06-22T12:39:19;100481.94;;;46.25;25.14
62124;BME280;48110;47.532;19.078;2023-06-22T12:42:23;100473.44;;;44.34;24.70
62124;BME280;48110;47.532;19.078;2023-06-22T12:45:26;100470.94;;;47.25;22.04
62124;BME280;48110;47.532;19.078;2023-06-22T12:48:31;100468.88;;;45.16;24.74
62124;BME280;48110;47.532;19.078;2023-06-22T12:51:40;100461.53;;;43.28;27.32
62124;BME280;48110;47.532;19.078;2023-06-22T12:54:48;100463.22;;;44.88;26.53
62124;BME280;48110;47.532;19.078;2023-06-22T12:57:57;100457.19;;;44.75;25.39
62124;BME280;48110;47.532;19.078;2023-06-22T13:01:01;100462.56;;;43.09;27.98
62124;BME280;48110;47.532;19.078;2023-06-22T13:04:04;100468.06;;;45.58;25.40
62124;BME280;48110;47.532;19.078;2023-06-22T13:07:11;100456.38;;;43.33;27.08
62124;BME280;48110;47.532;19.078;2023-06-22T13:10:18;100462.38;;;46.01;24.85
62124;BME280;48110;47.532;19.078;2023-06-22T13:13:26;100449.50;;;44.54;25.81
62124;BME280;48110;47.532;19.078;2023-06-22T13:16:34;100444.37;;;44.74;25.88
62124;BME280;48110;47.532;19.078;2023-06-22T13:19:41;100440.84;;;45.34;25.00
62124;BME280;48110;47.532;19.078;2023-06-22T13:22:47;100434.78;;;45.71;23.70
62124;BME280;48110;47.532;19.078;2023-06-22T13:25:54;100432.84;;;45.43;24.19
62124;BME280;48110;47.532;19.078;2023-06-22T13:28:59;100431.84;;;46.24;25.06
62124;BME280;48110;47.532;19.078;2023-06-22T13:32:05;100427.63;;;45.49;25.29
62124;BME280;48110;47.532;19.078;2023-06-22T13:35:11;100422.25;;;43.58;26.21
62124;BME280;48110;47.532;19.078;2023-06-22T13:38:16;100427.25;;;45.43;25.51
62124;BME280;48110;47.532;19.078;2023-06-22T13:41:20;100431.25;;;45.31;25.88
62124;BME280;48110;47.532;19.078;2023-06-22T13:44:26;100425.28;;;46.55;23.65
62124;BME280;48110;47.532;19.078;2023-06-22T13:47:34;100417.53;;;45.90;24.11
62124;BME280;48110;47.532;19.078;2023-06-22T13:50:39;100422.38;;;44.66;25.67
62124;BME280;48110;47.532;19.078;2023-06-22T13:53:45;100408.22;;;42.59;29.57
62124;BME280;48110;47.532;19.078;2023-06-22T13:56:51;100412.75;;;44.59;25.42
62124;BME280;48110;47.532;19.078;2023-06-22T13:59:55;100406.44;;;45.44;24.85
62124;BME280;48110;47.532;19.078;2023-06-22T14:03:01;100404.34;;;44.59;25.54
62124;BME280;48110;47.532;19.078;2023-06-22T14:06:05;100399.28;;;43.86;26.62
62124;BME280;48110;47.532;19.078;2023-06-22T14:09:10;100395.34;;;43.36;27.26
62124;BME280;48110;47.532;19.078;2023-06-22T14:12:16;100402.81;;;45.43;25.33
62124;BME280;48110;47.532;19.078;2023-06-22T14:15:24;100401.19;;;45.64;24.62
62124;BME280;48110;47.532;19.078;2023-06-22T14:18:29;100395.47;;;42.99;26.65
62124;BME280;48110;47.532;19.078;2023-06-22T14:21:35;100390.31;;;44.42;26.34
62124;BME280;48110;47.532;19.078;2023-06-22T14:24:42;100386.75;;;44.52;24.51
62124;BME280;48110;47.532;19.078;2023-06-22T14:27:50;100380.31;;;45.75;24.79
62124;BME280;48110;47.532;19.078;2023-06-22T14:30:56;100375.19;;;44.75;26.17
62124;BME280;48110;47.532;19.078;2023-06-22T14:34:01;100370.22;;;44.01;26.75
62124;BME280;48110;47.532;19.078;2023-06-22T14:37:09;100368.81;;;45.13;25.45
62124;BME280;48110;47.532;19.078;2023-06-22T14:40:21;100365.19;;;45.48;24.49
62124;BME280;48110;47.532;19.078;2023-06-22T14:43:30;100365.53;;;44.37;26.00
62124;BME280;48110;47.532;19.078;2023-06-22T14:46:35;100355.94;;;45.62;23.96
62124;BME280;48110;47.532;19.078;2023-06-22T14:49:40;100362.37;;;44.59;25.61
62124;BME280;48110;47.532;19.078;2023-06-22T14:52:45;100350.78;;;42.55;27.70
62124;BME280;48110;47.532;19.078;2023-06-22T14:55:51;100355.81;;;43.30;27.00
62124;BME280;48110;47.532;19.078;2023-06-22T14:58:56;100354.41;;;44.90;24.56
62124;BME280;48110;47.532;19.078;2023-06-22T15:02:01;100355.81;;;44.02;26.09
62124;BME280;48110;47.532;19.078;2023-06-22T15:05:07;100349.63;;;44.97;25.74
62124;BME280;48110;47.532;19.078;2023-06-22T15:08:14;100347.09;;;45.67;23.56
62124;BME280;48110;47.532;19.078;2023-06-22T15:11:21;100341.22;;;44.66;25.79
62124;BME280;48110;47.532;19.078;2023-06-22T15:14:27;100329.88;;;42.38;28.08
62124;BME280;48110;47.532;19.078;2023-06-22T15:17:31;100333.88;;;42.77;28.32
62124;BME280;48110;47.532;19.078;2023-06-22T15:20:39;100313.22;;;42.08;28.38
62124;BME280;48110;47.532;19.078;2023-06-22T15:23:44;100325.63;;;42.14;29.15
62124;BME280;48110;47.532;19.078;2023-06-22T15:26:50;100321.63;;;42.89;28.67
62124;BME280;48110;47.532;19.078;2023-06-22T15:29:55;100322.53;;;42.23;29.34
62124;BME280;48110;47.532;19.078;2023-06-22T15:33:01;100322.78;;;39.72;32.32
62124;BME280;48110;47.532;19.078;2023-06-22T15:36:06;100318.81;;;39.03;33.44
62124;BME280;48110;47.532;19.078;2023-06-22T15:39:11;100315.41;;;39.10;33.74
62124;BME280;48110;47.532;19.078;2023-06-22T15:42:15;100314.50;;;40.33;32.11
62124;BME280;48110;47.532;19.078;2023-06-22T15:45:21;100319.69;;;39.39;32.25
62124;BME280;48110;47.532;19.078;2023-06-22T15:48:26;100325.78;;;39.64;32.54
62124;BME280;48110;47.532;19.078;2023-06-22T15:51:31;100318.28;;;38.66;33.29
62124;BME280;48110;47.532;19.078;2023-06-22T15:54:39;100313.03;;;37.78;37.53
62124;BME280;48110;47.532;19.078;2023-06-22T15:57:49;100325.75;;;37.67;36.12
62124;BME280;48110;47.532;19.078;2023-06-22T16:00:56;100319.69;;;38.17;32.80